Time;durP1;ratioP1;P1;durP2;ratioP2;P2;SDS_P1;SDS_P2;PMS_P1;PMS_P2;Temp;Humidity;BMP_temperature;BMP_pressure;BME280_temperature;BME280_humidity;BME280_pressure;Samples;Min_cycle;Max_cycle;Signal;HPM_P1;HPM_P2
2023/02/10 00:01:24;;;;;;;50.07;24.80;;;;;;;-3.31;47.99;96709.53;5046255;28;20059;-77
2023/02/10 00:03:50;;;;;;;56.57;26.10;;;;;;;-3.36;48.25;96706.97;5046527;28;20052;-77
2023/02/10 00:06:17;;;;;;;48.60;24.40;;;;;;;-3.36;48.24;96709.66;5046605;28;20115;-77
2023/02/10 00:08:46;;;;;;;46.00;26.37;;;;;;;-3.40;48.03;96714.03;5046082;28;20483;-79
2023/02/10 00:11:12;;;;;;;52.57;24.03;;;;;;;-3.38;48.31;96707.28;5046236;28;20511;-77
2023/02/10 00:13:38;;;;;;;46.00;22.93;;;;;;;-3.42;48.30;96703.59;5046113;28;20029;-76
2023/02/10 00:16:05;;;;;;;45.70;21.50;;;;;;;-3.45;48.31;96698.81;5045896;28;20117;-78
2023/02/10 00:18:31;;;;;;;56.57;27.70;;;;;;;-3.44;48.80;96700.44;5045604;28;20114;-77
2023/02/10 00:21:09;;;;;;;53.77;27.33;;;;;;;-3.56;48.84;96698.25;5029339;28;20836;-77
2023/02/10 00:23:34;;;;;;;54.30;27.20;;;;;;;-3.57;48.98;96701.25;5046013;28;20227;-76
2023/02/10 00:26:04;;;;;;;55.67;27.20;;;;;;;-3.62;49.31;96698.66;5046915;28;20148;-76
2023/02/10 00:28:31;;;;;;;53.57;25.60;;;;;;;-3.67;49.01;96694.22;5047132;28;20108;-76
2023/02/10 00:30:56;;;;;;;47.67;24.40;;;;;;;-3.70;48.56;96688.63;5045628;28;20080;-76
2023/02/10 00:33:22;;;;;;;49.90;24.87;;;;;;;-3.71;49.33;96698.59;5045216;28;20411;-75
2023/02/10 00:35:47;;;;;;;51.17;25.03;;;;;;;-3.74;49.36;96693.81;5045626;28;20054;-78
2023/02/10 00:38:12;;;;;;;45.87;23.53;;;;;;;-3.77;49.25;96687.16;5046727;28;20321;-77
2023/02/10 00:40:38;;;;;;;40.70;22.50;;;;;;;-3.76;49.03;96688.75;5046347;28;20557;-76
2023/02/10 00:43:03;;;;;;;51.00;25.20;;;;;;;-3.80;48.94;96668.16;5046622;28;20025;-76
2023/02/10 00:45:29;;;;;;;45.47;21.70;;;;;;;-3.77;49.44;96673.72;5046953;28;20116;-78
2023/02/10 00:47:54;;;;;;;42.50;21.80;;;;;;;-3.75;49.28;96676.88;5046486;28;20427;-76
2023/02/10 00:50:19;;;;;;;44.30;21.77;;;;;;;-3.77;49.31;96681.00;5046265;28;20055;-77
2023/02/10 00:52:45;;;;;;;42.57;20.97;;;;;;;-3.78;49.04;96677.50;5049547;28;20033;-77
2023/02/10 00:55:10;;;;;;;38.73;19.13;;;;;;;-3.84;48.92;96667.97;5048668;28;20640;-76
2023/02/10 00:57:36;;;;;;;33.77;18.23;;;;;;;-3.85;49.16;96657.50;5045344;28;20910;-77
2023/02/10 01:00:02;;;;;;;37.60;18.33;;;;;;;-3.86;48.78;96667.47;5058966;28;20028;-78
2023/02/10 01:02:27;;;;;;;32.70;16.17;;;;;;;-3.90;48.61;96671.88;5065565;28;20487;-77
2023/02/10 01:04:53;;;;;;;28.97;15.57;;;;;;;-3.89;48.61;96661.91;5065806;28;20089;-79
2023/02/10 01:07:18;;;;;;;26.33;14.97;;;;;;;-3.92;48.96;96667.88;5063441;28;20127;-77
2023/02/10 01:09:44;;;;;;;27.90;15.57;;;;;;;-3.90;48.92;96665.66;5065871;28;20090;-77
2023/02/10 01:12:09;;;;;;;32.27;16.63;;;;;;;-3.90;48.87;96671.03;5065376;28;20033;-76
2023/02/10 01:14:34;;;;;;;34.40;16.70;;;;;;;-3.97;49.28;96666.09;5063273;28;20032;-76
2023/02/10 01:17:03;;;;;;;29.10;16.20;;;;;;;-3.95;49.08;96658.53;5063345;28;20363;-77
2023/02/10 01:19:28;;;;;;;32.80;17.83;;;;;;;-3.98;49.56;96658.34;5065046;28;20442;-77
2023/02/10 01:21:54;;;;;;;29.00;16.93;;;;;;;-3.99;49.29;96667.50;5065137;28;20379;-78
2023/02/10 01:24:19;;;;;;;38.63;16.23;;;;;;;-4.05;49.38;96664.13;5064393;28;20029;-78
2023/02/10 01:26:44;;;;;;;32.67;17.57;;;;;;;-4.06;48.74;96659.84;5063856;28;20104;-76
2023/02/10 01:29:10;;;;;;;32.27;15.90;;;;;;;-4.08;48.96;96652.06;5063531;28;20033;-77
2023/02/10 01:31:35;;;;;;;33.53;17.47;;;;;;;-4.08;49.13;96653.97;5064241;28;20039;-77
2023/02/10 01:34:01;;;;;;;33.23;18.03;;;;;;;-4.05;48.93;96658.75;5065680;28;20020;-77
2023/02/10 01:36:26;;;;;;;34.33;16.67;;;;;;;-4.10;49.16;96658.84;5065353;28;20024;-78
2023/02/10 01:38:52;;;;;;;29.10;15.17;;;;;;;-4.10;48.49;96654.28;5065658;28;20036;-77
2023/02/10 01:41:21;;;;;;;28.93;16.27;;;;;;;-4.12;48.74;96653.00;5063267;28;20070;-76
2023/02/10 01:44:18;;;;;;;32.47;17.83;;;;;;;-4.08;49.33;96653.97;5063227;28;20568;-77
2023/02/10 01:46:44;;;;;;;36.13;17.93;;;;;;;-4.16;49.53;96649.31;5065227;28;20044;-75
2023/02/10 01:49:12;;;;;;;35.87;18.13;;;;;;;-4.29;49.68;96642.88;5067989;28;20036;-76
2023/02/10 01:51:42;;;;;;;41.00;18.93;;;;;;;-4.28;50.29;96647.13;5066747;28;20066;-78
2023/02/10 01:54:12;;;;;;;42.57;19.97;;;;;;;-4.38;50.28;96642.75;5064740;28;20054;-77
2023/02/10 01:56:38;;;;;;;42.60;20.63;;;;;;;-4.38;50.34;96634.72;5064003;28;20033;-77
2023/02/10 01:59:04;;;;;;;42.90;20.27;;;;;;;-4.47;50.18;96631.16;5044785;28;20065;-77
2023/02/10 02:01:29;;;;;;;38.13;18.47;;;;;;;-4.48;50.19;96628.75;5062869;28;20020;-77
2023/02/10 02:03:55;;;;;;;38.77;18.30;;;;;;;-4.58;49.91;96622.50;5063469;28;20119;-77
2023/02/10 02:06:22;;;;;;;34.73;17.17;;;;;;;-4.57;50.09;96617.94;5063767;28;20028;-76
2023/02/10 02:08:48;;;;;;;32.63;15.27;;;;;;;-4.59;49.79;96618.22;5062967;28;20028;-77
2023/02/10 02:11:23;;;;;;;29.37;15.57;;;;;;;-4.57;50.04;96620.59;5062664;28;20429;-76
2023/02/10 02:14:23;;;;;;;29.60;14.03;;;;;;;-4.56;49.64;96617.63;5059026;28;20147;-76
2023/02/10 02:16:57;;;;;;;31.10;13.43;;;;;;;-4.57;49.84;96618.72;5064063;28;20735;-77
2023/02/10 02:19:22;;;;;;;;;;;;;;;-4.57;49.73;96621.41;5059762;28;20041;-77
2023/02/10 02:21:53;;;;;;;;;;;;;;;-4.56;49.53;96617.63;5049328;28;20029;-76
2023/02/10 02:24:27;;;;;;;;;;;;;;;-4.48;49.61;96612.63;5044200;28;19956;-77
2023/02/10 02:27:01;;;;;;;;;;;;;;;-4.38;49.68;96617.81;5077480;28;19940;-76
2023/02/10 02:29:42;;;;;;;;;;;;;;;-4.43;49.27;96616.00;5058812;28;19912;-77
2023/02/10 02:32:26;;;;;;;;;;;;;;;-4.51;49.53;96611.34;5058399;28;20066;-77
2023/02/10 02:34:57;;;;;;;;;;;;;;;-4.50;49.44;96610.25;5058488;28;19955;-78
2023/02/10 02:37:25;;;;;;;;;;;;;;;-4.54;49.71;96610.06;5046359;28;19963;-77
2023/02/10 02:39:51;;;;;;;;;;;;;;;-4.54;49.95;96615.41;5043642;28;19916;-78
2023/02/10 02:42:23;;;;;;;;;;;;;;;-4.51;49.77;96608.69;5048038;28;20402;-77
2023/02/10 02:44:51;;;;;;;;;;;;;;;-4.47;49.89;96608.84;5049287;28;19909;-77
2023/02/10 02:47:35;;;;;;;;;;;;;;;-4.55;50.12;96610.34;5043908;28;19913;-77
2023/02/10 02:50:03;;;;;;;;;;;;;;;-4.56;50.19;96600.72;5047701;28;19971;-78
2023/02/10 02:52:34;;;;;;;;;;;;;;;-4.52;49.82;96599.03;5045834;28;19916;-77
2023/02/10 02:55:03;;;;;;;;;;;;;;;-4.47;49.59;96596.25;5048095;28;19920;-77
2023/02/10 02:57:34;;;;;;;;;;;;;;;-4.48;49.25;96602.69;5045273;28;19917;-76
2023/02/10 03:00:07;;;;;;;;;;;;;;;-4.53;49.24;96602.78;5045358;28;19936;-76
2023/02/10 03:02:32;;;;;;;;;;;;;;;-4.57;49.11;96604.50;5042694;28;19917;-77
2023/02/10 03:04:58;;;;;;;;;;;;;;;-4.59;49.28;96591.38;5039960;28;19962;-77
2023/02/10 03:07:23;;;;;;;;;;;;;;;-4.64;49.46;96598.75;5047766;28;19916;-78
2023/02/10 03:09:48;;;;;;;;;;;;;;;-4.65;49.33;96597.94;5063219;28;20011;-77
2023/02/10 03:12:14;;;;;;;;;;;;;;;-4.74;49.12;96599.72;5048515;28;19917;-77
2023/02/10 03:14:39;;;;;;;;;;;;;;;-4.78;49.42;96606.00;5043150;28;20364;-77
2023/02/10 03:17:04;;;;;;;;;;;;;;;-4.81;49.09;96613.56;5047218;28;20454;-79
2023/02/10 03:19:30;;;;;;;;;;;;;;;-4.80;49.32;96606.28;5047081;28;19917;-78
2023/02/10 03:21:55;;;;;;;;;;;;;;;-4.79;49.50;96605.19;5048086;28;20020;-77
2023/02/10 03:24:20;;;;;;;;;;;;;;;-4.76;49.39;96603.78;5048099;28;20015;-78
2023/02/10 03:26:46;;;;;;;;;;;;;;;-4.83;49.39;96604.97;5040954;28;20367;-77
2023/02/10 03:29:11;;;;;;;;;;;;;;;-4.82;49.35;96611.97;5028670;28;19972;-77
2023/02/10 03:31:37;;;;;;;;;;;;;;;-4.84;49.36;96600.72;5028859;28;19921;-78
2023/02/10 03:34:02;;;;;;;;;;;;;;;-4.83;49.30;96607.66;5034653;28;20289;-78
2023/02/10 03:36:27;;;;;;;;;;;;;;;-4.82;49.35;96611.16;5029926;28;19917;-78
2023/02/10 03:38:52;;;;;;;;;;;;;;;-4.81;49.44;96604.72;5019392;28;20015;-77
2023/02/10 03:41:18;;;;;;;;;;;;;;;-4.81;49.74;96596.66;5029717;28;19982;-77
2023/02/10 03:43:43;;;;;;;;;;;;;;;-4.76;49.30;96598.44;5013348;28;20007;-77
2023/02/10 03:46:09;;;;;;;;;;;;;;;-4.72;49.39;96596.75;5042275;28;19917;-76
2023/02/10 03:48:34;;;;;;;;;;;;;;;-4.79;49.71;96591.78;5041699;28;19963;-79
2023/02/10 03:51:00;;;;;;;;;;;;;;;-4.77;49.55;96586.91;5029717;28;19917;-78
2023/02/10 03:53:25;;;;;;;;;;;;;;;-4.78;49.22;96573.78;5039240;28;20323;-76
2023/02/10 03:55:51;;;;;;;;;;;;;;;-4.80;48.83;96574.09;5029369;28;19991;-78
2023/02/10 03:58:16;;;;;;;;;;;;;;;-4.79;49.14;96580.25;5036020;28;19923;-78
2023/02/10 04:00:41;;;;;;;;;;;;;;;-4.83;49.27;96572.78;5030992;28;19917;-77
2023/02/10 04:03:06;;;;;;;;;;;;;;;-4.82;49.34;96578.94;5039550;28;19916;-79
2023/02/10 04:05:32;;;;;;;;;;;;;;;-4.86;49.23;96576.09;5036366;28;19920;-77
2023/02/10 04:07:57;;;;;;;;;;;;;;;-4.91;49.57;96578.88;5012093;28;19932;-78
2023/02/10 04:10:22;;;;;;;;;;;;;;;-4.95;49.66;96569.81;5030212;28;19917;-76
2023/02/10 04:12:48;;;;;;;;;;;;;;;-4.96;49.51;96578.94;5027785;28;20453;-77
2023/02/10 04:15:13;;;;;;;;;;;;;;;-4.97;49.42;96576.56;5032500;28;19924;-78
2023/02/10 04:17:39;;;;;;;;;;;;;;;-4.92;49.43;96579.16;5033889;28;20003;-77
2023/02/10 04:20:04;;;;;;;;;;;;;;;-4.94;49.21;96567.91;5033134;28;20006;-80
2023/02/10 04:22:29;;;;;;;;;;;;;;;-4.97;49.38;96580.06;5034662;28;19944;-78
2023/02/10 04:24:55;;;;;;;;;;;;;;;-4.99;48.94;96582.22;5041195;28;19917;-77
2023/02/10 04:27:20;;;;;;;;;;;;;;;-5.03;49.08;96575.09;5030516;28;19917;-79
2023/02/10 04:29:45;;;;;;;;;;;;;;;-5.00;49.26;96582.53;5029690;28;19987;-77
2023/02/10 04:32:10;;;;;;;;;;;;;;;-5.01;48.75;96581.72;5030158;28;20012;-78
2023/02/10 04:34:36;;;;;;;;;;;;;;;-5.03;48.78;96575.09;5029961;28;19917;-78
2023/02/10 04:37:01;;;;;;;;;;;;;;;-5.01;48.66;96581.72;5028865;28;19921;-78
2023/02/10 04:39:26;;;;;;;;;;;;;;;-5.08;48.67;96584.00;5030269;28;20417;-77
2023/02/10 04:41:52;;;;;;;;;;;;;;;-5.15;48.75;96581.72;5043515;28;20031;-77
2023/02/10 04:44:17;;;;;;;;;;;;;;;-5.18;49.29;96587.66;5035041;28;19924;-78
2023/02/10 04:46:42;;;;;;;;;;;;;;;-5.18;49.38;96582.31;5050041;28;20015;-78
2023/02/10 04:49:07;;;;;;;;;;;;;;;-5.19;49.02;96578.03;5045458;28;19917;-77
2023/02/10 04:51:33;;;;;;;;;;;;;;;-5.21;49.18;96580.22;5031683;28;20007;-80
2023/02/10 04:53:58;;;;;;;;;;;;;;;-5.15;49.33;96589.78;5040714;28;20390;-78
2023/02/10 04:56:24;;;;;;;;;;;;;;;-5.23;49.30;96593.13;5036635;28;20325;-77
2023/02/10 04:58:49;;;;;;;;;;;;;;;-5.25;49.57;96595.31;5027507;28;20019;-77
2023/02/10 05:01:16;;;;;;;;;;;;;;;-5.29;49.60;96588.94;5042311;28;20019;-76
2023/02/10 05:03:41;;;;;;;;;;;;;;;-5.25;49.61;96598.00;5040110;28;19995;-77
2023/02/10 05:06:10;;;;;;;;;;;;;;;-5.24;49.76;96601.47;5029825;28;19921;-75
2023/02/10 05:08:40;;;;;;;;;;;;;;;-5.26;49.69;96600.97;5026710;28;19917;-77
2023/02/10 05:11:06;;;;;;;;;;;;;;;-5.32;50.23;96604.84;5027880;28;19917;-77
2023/02/10 05:13:31;;;;;;;;;;;;;;;-5.35;49.99;96611.56;5026947;28;19979;-75
2023/02/10 05:15:56;;;;;;;;;;;;;;;-5.34;49.94;96605.91;5027240;28;20358;-77
2023/02/10 05:18:22;;;;;;;;;;;;;;;-5.32;50.24;96602.16;5028545;28;19925;-78
2023/02/10 05:20:47;;;;;;;;;;;;;;;-5.27;50.07;96613.59;5036217;28;19923;-79
2023/02/10 05:23:13;;;;;;;;;;;;;;;-5.29;50.17;96618.44;5033960;28;19956;-76
2023/02/10 05:25:38;;;;;;;;;;;;;;;-5.31;50.36;96622.50;5034298;28;19956;-76
2023/02/10 05:28:03;;;;;;;;;;;;;;;-5.26;50.28;96622.44;5036010;28;19916;-75
2023/02/10 05:30:28;;;;;;;;;;;;;;;-5.23;50.30;96624.50;5034599;28;19920;-76
2023/02/10 05:32:54;;;;;;;;;;;;;;;-5.24;50.31;96637.13;5035338;28;20379;-77
2023/02/10 05:35:19;;;;;;;;;;;;;;;-5.27;50.27;96635.03;5034725;28;19928;-76
2023/02/10 05:37:44;;;;;;;;;;;;;;;-5.28;50.01;96632.63;5030772;28;20427;-76
2023/02/10 05:40:10;;;;;;;;;;;;;;;-5.27;50.18;96629.66;5035002;28;19960;-76
2023/02/10 05:42:35;;;;;;;;;;;;;;;-5.21;49.94;96633.84;5038788;28;19916;-78
2023/02/10 05:45:00;;;;;;;;;;;;;;;-5.20;50.14;96643.50;5036053;28;20070;-76
2023/02/10 05:47:25;;;;;;;;;;;;;;;-5.17;50.20;96639.41;5033622;28;19928;-76
2023/02/10 05:49:51;;;;;;;;;;;;;;;-5.20;49.88;96643.50;5034342;28;19920;-77
2023/02/10 05:52:16;;;;;;;;;;;;;;;-5.14;49.81;96644.19;5033653;28;19924;-77
2023/02/10 05:54:41;;;;;;;;;;;;;;;-5.10;49.13;96645.22;5032413;28;19916;-77
2023/02/10 05:57:07;;;;;;;;;;;;;;;-5.16;49.66;96651.72;5035352;28;19924;-77
2023/02/10 05:59:32;;;;;;;;;;;;;;;-5.17;49.63;96656.28;5033231;28;19959;-76
2023/02/10 06:01:57;;;;;;;;;;;;;;;-5.15;49.41;96648.75;5034067;28;19925;-76
2023/02/10 06:04:23;;;;;;;;;;;;;;;-5.17;49.59;96655.50;5030075;28;21289;-77
2023/02/10 06:06:49;;;;;;;;;;;;;;;-5.16;49.48;96654.41;5032521;28;20009;-76
2023/02/10 06:09:14;;;;;;;;;;;;;;;-5.13;49.57;96659.19;5032935;28;19920;-76
2023/02/10 06:11:39;;;;;;;;;;;;;;;-5.11;49.21;96659.69;5033626;28;19928;-76
2023/02/10 06:14:04;;;;;;;;;;;;;;;-5.04;48.94;96664.69;5034035;28;19996;-75
2023/02/10 06:16:30;;;;;;;;;;;;;;;-5.03;49.44;96663.59;5033317;28;19925;-76
2023/02/10 06:18:55;;;;;;;;;;;;;;;-4.98;49.50;96676.91;5028790;28;19960;-78
2023/02/10 06:21:22;;;;;;;;;;;;;;;-4.87;49.75;96675.66;5027138;28;19920;-74
2023/02/10 06:23:47;;;;;;;;;;;;;;;-4.84;49.53;96675.84;5032669;28;19929;-76
2023/02/10 06:26:13;;;;;;;;;;;;;;;-4.83;49.60;96679.31;5033156;28;19939;-75
2023/02/10 06:28:38;;;;;;;;;;;;;;;-4.81;49.30;96682.53;5035987;28;19920;-75
2023/02/10 06:31:03;;;;;;;;;;;;;;;-4.79;49.39;96680.31;5034177;28;19949;-76
2023/02/10 06:33:29;;;;;;;;;;;;;;;-4.71;48.99;96681.53;5034482;28;19917;-75
2023/02/10 06:35:54;;;;;;;;;;;;;;;-4.60;49.16;96680.25;5032642;28;19963;-75
2023/02/10 06:38:19;;;;;;;;;;;;;;;-4.55;49.29;96689.00;5036932;28;19939;-76
2023/02/10 06:40:45;;;;;;;;;;;;;;;-4.51;49.42;96688.41;5040523;28;19921;-76
2023/02/10 06:43:10;;;;;;;;;;;;;;;-4.41;49.12;96693.59;5035326;28;19917;-75
2023/02/10 06:45:35;;;;;;;;;;;;;;;-4.34;49.02;96688.63;5035116;28;19916;-75
2023/02/10 06:48:01;;;;;;;;;;;;;;;-4.27;48.91;96686.31;5036668;28;19917;-75
2023/02/10 06:50:26;;;;;;;;;;;;;;;-4.11;48.62;96692.97;5034420;28;19963;-75
2023/02/10 06:52:51;;;;;;;;;;;;;;;-4.04;48.13;96695.25;5028205;28;19917;-77
2023/02/10 06:55:17;;;;;;;;;;;;;;;-3.97;48.52;96698.34;5045208;28;20011;-77
2023/02/10 06:57:43;;;;;;;;;;;;;;;-3.86;48.10;96702.41;5042174;28;19917;-78
2023/02/10 07:00:09;;;;;;;;;;;;;;;-3.81;48.11;96702.28;5040743;28;19921;-76
2023/02/10 07:02:35;;;;;;;;;;;;;;;-3.68;48.01;96705.25;5046256;28;19919;-78
2023/02/10 07:05:02;;;;;;;;;;;;;;;-3.59;47.55;96709.63;5051089;28;19913;-77
2023/02/10 07:07:28;;;;;;;;;;;;;;;-3.45;47.45;96701.50;5050684;28;19999;-76
2023/02/10 07:09:54;;;;;;;;;;;;;;;-3.33;46.92;96695.59;5049340;28;19959;-76
2023/02/10 07:12:19;;;;;;;;;;;;;;;-3.27;46.77;96692.50;5031302;28;19916;-76
2023/02/10 07:14:45;;;;;;;;;;;;;;;-3.18;46.29;96689.84;5045728;28;19920;-77
2023/02/10 07:17:10;;;;;;;;;;;;;;;-3.07;46.16;96693.09;5045561;28;20501;-76
2023/02/10 07:19:35;;;;;;;;;;;;;;;-2.86;46.02;96683.41;5045586;28;19919;-77
2023/02/10 07:22:04;;;;;;;;;;;;;;;-2.75;45.76;96692.81;5045027;28;19913;-76
2023/02/10 07:24:30;;;;;;;;;;;;;;;-2.62;45.36;96685.75;5045148;28;20402;-76
2023/02/10 07:26:55;;;;;;;;;;;;;;;-2.48;45.07;96696.44;5031699;28;19972;-78
2023/02/10 07:29:20;;;;;;;;;;;;;;;-2.36;44.96;96693.94;5032531;28;19916;-76
2023/02/10 07:31:45;;;;;;;;;;;;;;;-2.20;44.73;96703.19;5029492;28;19927;-79
2023/02/10 07:34:11;;;;;;;;;;;;;;;-2.03;44.13;96699.78;5048008;28;19916;-77
2023/02/10 07:36:36;;;;;;;;;;;;;;;-1.91;43.76;96693.78;5042204;28;19917;-77
2023/02/10 07:39:01;;;;;;;;;;;;;;;-1.80;43.52;96699.66;5040794;28;19932;-77
2023/02/10 07:41:26;;;;;;;;;;;;;;;-1.70;43.14;96692.06;5042968;28;19978;-78
2023/02/10 07:43:52;;;;;;;;;;;;;;;-1.54;42.88;96695.13;5043862;28;19921;-78
2023/02/10 07:46:17;;;;;;;;;;;;;;;-1.39;42.30;96691.94;5048970;28;19920;-77
2023/02/10 07:48:42;;;;;;;;;;;;;;;-1.23;41.84;96694.16;5044634;28;19920;-76
2023/02/10 07:51:08;;;;;;;;;;;;;;;-1.05;41.64;96697.66;5028594;28;20618;-76
2023/02/10 07:53:33;;;;;;;;;;;;;;;-0.86;41.04;96698.91;5028245;28;20409;-77
2023/02/10 07:55:59;;;;;;;;;;;;;;;-0.66;40.82;96689.31;5048571;28;19916;-77
2023/02/10 07:58:25;;;;;;;;;;;;;;;-0.42;40.20;96696.09;5053155;28;19913;-76
2023/02/10 08:00:50;;;;;;;;;;;;;;;-0.22;39.63;96703.50;5025519;28;19923;-77
2023/02/10 08:03:15;;;;;;;;;;;;;;;-0.04;38.99;96701.50;5029222;28;19924;-78
2023/02/10 08:05:41;;;;;;;;;;;;;;;0.21;38.48;96699.78;5028068;28;20346;-77
2023/02/10 08:08:07;;;;;;;;;;;;;;;0.46;37.82;96698.84;5036683;28;20351;-76
2023/02/10 08:10:32;;;;;;;;;;;;;;;0.66;37.57;96702.66;5041565;28;19990;-77
2023/02/10 08:12:57;;;;;;;;;;;;;;;0.98;37.03;96697.66;5028992;28;19917;-76
2023/02/10 08:15:25;;;;;;;;;;;;;;;1.28;36.83;96696.41;5047621;28;20344;-77
2023/02/10 08:17:50;;;;;;;;;;;;;;;1.66;36.27;96692.66;5047229;28;19966;-77
2023/02/10 08:20:15;;;;;;;;;;;;;;;2.06;35.23;96697.44;5040845;28;19921;-76
2023/02/10 08:22:41;;;;;;;;;;;;;;;2.38;34.93;96693.81;5047169;28;19913;-77
2023/02/10 08:25:06;;;;;;;;;;;;;;;2.70;33.82;96682.34;5040980;28;20356;-78
2023/02/10 08:27:31;;;;;;;;;;;;;;;2.98;33.12;96688.56;5029125;28;20106;-78
2023/02/10 08:29:56;;;;;;;;;;;;;;;3.18;33.23;96684.88;5028638;28;20347;-76
2023/02/10 08:32:22;;;;;;;;;;;;;;;3.50;32.81;96681.44;5035590;28;19991;-78
2023/02/10 08:34:47;;;;;;;;;;;;;;;3.84;32.19;96688.94;5048882;28;20312;-76
2023/02/10 08:37:13;;;;;;;;;;;;;;;4.17;31.62;96693.22;5038478;28;19920;-78
2023/02/10 08:39:38;;;;;;;;;;;;;;;4.68;30.31;96687.78;5043085;28;20454;-78
2023/02/10 08:42:03;;;;;;;;;;;;;;;5.01;30.20;96684.59;5048458;28;19912;-78
2023/02/10 08:44:29;;;;;;;;;;;;;;;5.50;29.54;96687.50;5037170;28;20348;-78
2023/02/10 08:46:55;;;;;;;;;;;;;;;5.83;29.24;96689.66;5028849;28;19913;-78
2023/02/10 08:49:24;;;;;;;;;;;;;;;6.29;27.88;96684.22;5027860;28;19928;-77
2023/02/10 08:51:49;;;;;;;;;;;;;;;6.66;27.72;96678.13;5029865;28;19923;-77
2023/02/10 08:54:14;;;;;;;;;;;;;;;7.35;27.23;96692.31;5027460;28;19992;-76
2023/02/10 08:56:39;;;;;;;;;;;;;;;7.98;25.95;96679.66;5027604;28;19968;-77
2023/02/10 08:59:05;;;;;;;;;;;;;;;8.71;25.45;96682.56;5028772;28;20324;-78
2023/02/10 09:01:30;;;;;;;;;;;;;;;9.52;24.35;96684.94;5030602;28;19921;-77
2023/02/10 09:03:55;;;;;;;;;;;;;;;10.17;23.43;96677.59;5030212;28;19913;-76
2023/02/10 09:06:22;;;;;;;;;;;;;;;10.88;22.53;96679.50;5046897;28;20000;-77
2023/02/10 09:08:47;;;;;;;;;;;;;;;11.55;21.30;96674.97;5041654;28;19938;-76
2023/02/10 09:11:16;;;;;;;;;;;;;;;12.17;20.98;96680.50;5037404;28;19920;-78
2023/02/10 09:13:41;;;;;;;;;;;;;;;12.82;20.12;96669.72;5035470;28;19924;-77
2023/02/10 09:16:06;;;;;;;;;;;;;;;13.93;18.96;96665.63;5035724;28;20358;-77
2023/02/10 09:18:32;;;;;;;;;;;;;;;14.65;18.11;96663.34;5037702;28;19952;-77
2023/02/10 09:20:58;;;;;;;;;;;;;;;15.33;17.47;96665.63;5044391;28;19931;-77
2023/02/10 09:23:23;;;;;;;;;;;;;;;16.15;16.99;96674.19;5027133;28;19928;-78
2023/02/10 09:25:58;;;;;;;;;;;;;;;17.13;15.74;96668.59;5043965;28;19970;-78
2023/02/10 09:28:23;;;;;;;;;;;;;;;18.18;14.96;96666.00;5029075;28;19980;-78
2023/02/10 09:30:49;;;;;;;;;;;;;;;19.88;13.89;96661.31;5036206;28;20011;-78
2023/02/10 09:33:14;;;;;;;;;;;;;;;21.63;12.57;96665.31;5030485;28;19916;-80
2023/02/10 09:35:40;;;;;;;;;;;;;;;22.89;10.79;96663.03;5040319;28;20334;-78
2023/02/10 09:38:06;;;;;;;;;;;;;;;23.78;10.82;96661.97;5027987;28;19916;-79
2023/02/10 09:40:33;;;;;;;;;;;;;;;24.03;10.11;96660.66;5040415;28;19913;-78
2023/02/10 09:43:03;;;;;;;;;;;;;;;24.56;10.17;96656.91;5037064;28;19998;-78
2023/02/10 09:45:31;;;;;;;;;;;;;;;25.66;9.48;96663.66;5025267;28;19913;-77
2023/02/10 09:48:02;;;;;;;;;;;;;;;26.66;9.04;96665.06;5044798;28;19916;-79
2023/02/10 09:50:31;;;;;;;;;;;;;;;27.68;8.34;96652.97;5045457;28;19913;-79
2023/02/10 09:53:06;;;;;;;;;;;;;;;28.60;7.88;96651.25;5046503;28;20399;-77
2023/02/10 09:55:35;;;;;;;;;;;;;;;29.21;7.42;96649.59;5064197;28;19916;-79
2023/02/10 09:58:04;;;;;;;;;;;;;;;29.51;7.12;96661.03;5063715;28;20007;-78
2023/02/10 10:00:31;;;;;;;;;;;;;;;29.86;6.88;96637.69;5042983;28;19913;-79
2023/02/10 10:02:56;;;;;;;;;;;;;;;30.87;6.78;96643.31;5047643;28;19917;-79
2023/02/10 10:05:37;;;;;;;;;;;;;;;31.01;6.57;96635.66;5040531;28;19916;-79
2023/02/10 10:08:02;;;;;;;;;;;;;;;32.09;6.03;96630.88;5064952;28;19935;-79
2023/02/10 10:10:32;;;;;;;;;;;;;;;32.62;5.68;96630.28;5063153;28;19916;-79
2023/02/10 10:12:57;;;;;;;;;;;;;;;32.76;5.67;96629.75;5040051;28;19917;-79
2023/02/10 10:15:23;;;;;;;;;;;;;;;32.76;5.51;96629.00;5026189;28;19921;-78
2023/02/10 10:18:00;;;;;;;;;;;;;;;33.53;5.40;96622.31;5030906;28;19913;-78
2023/02/10 10:20:29;;;;;;;;;;;;;;;33.54;5.00;96618.91;5037720;28;20378;-79
2023/02/10 10:23:13;;;;;;;;;;;;;;;33.18;5.19;96618.59;5026588;28;20407;-78
2023/02/10 10:25:48;;;;;;;;;;;;;;;32.71;4.96;96605.00;5047403;28;19916;-78
2023/02/10 10:28:31;;;;;;;;;;;;;;;32.27;5.63;96606.53;5057238;28;19928;-78
2023/02/10 10:31:11;;;;;;;;;;;;;;;32.63;5.11;96597.66;5028661;28;19956;-76
2023/02/10 10:33:36;;;;;;;;;;;;;;;32.02;5.83;96599.47;5029268;28;19923;-78
2023/02/10 10:36:02;;;;;;;;;;;;;;;32.35;5.41;96589.63;5030921;28;19917;-79
2023/02/10 10:38:31;;;;;;;;;;;;;;;32.01;5.18;96587.34;5045862;28;19971;-78
2023/02/10 10:40:59;;;;;;;;;;;;;;;32.30;5.20;96582.69;5028383;28;20311;-79
2023/02/10 10:43:29;;;;;;;;;;;;;;;31.78;5.48;96580.44;5028423;28;19916;-80
2023/02/10 10:45:56;;;;;;;;;;;;;;;31.55;5.23;96580.78;5032019;28;20353;-78
2023/02/10 10:48:26;;;;;;;;;;;;;;;30.92;5.66;96568.66;5031421;28;20373;-77
2023/02/10 10:50:51;;;;;;;;;;;;;;;29.89;6.07;96579.94;5034549;28;19917;-80
2023/02/10 10:53:18;;;;;;;;;;;;;;;28.94;6.48;96569.16;5032514;28;19916;-79
2023/02/10 10:55:46;;;;;;;;;;;;;;;28.67;6.63;96565.09;5038179;28;19929;-77
2023/02/10 10:58:17;;;;;;;;;;;;;;;27.88;7.04;96562.38;5028478;28;19935;-77
2023/02/10 11:00:49;;;;;;;;;;;;;;;27.78;7.12;96556.19;5038485;28;19983;-81
2023/02/10 11:03:14;;;;;;;;;;;;;;;27.40;7.36;96551.25;5025186;28;20363;-81
2023/02/10 11:05:39;;;;;;;;;;;;;;;28.33;7.37;96544.59;5033159;28;19917;-83
2023/02/10 11:08:05;;;;;;;;;;;;;;;28.63;7.26;96553.28;5048743;28;19913;-79
2023/02/10 11:10:47;;;;;;;;;;;;;;;29.08;6.79;96553.91;5030595;28;19924;-78
2023/02/10 11:13:19;;;;;;;;;;;;;;;29.38;6.42;96558.91;4196154;28;19925;-72
2023/02/10 11:15:45;;;;;;;;;;;;;;;29.84;6.55;96552.41;3941945;28;19932;-78
2023/02/10 11:18:36;;;;;;;;;;;;;;;29.85;6.42;96551.13;3932337;28;22808;-71
2023/02/10 11:21:02;;;;;;;;;;;;;;;30.05;6.48;96541.38;4013615;28;19991;-73
2023/02/10 11:23:28;;;;;;;;;;;;;;;30.39;6.32;96534.16;3602436;28;22298;-73
2023/02/10 11:26:00;;;;;;;;;;;;;;;30.32;6.06;96529.03;3543746;28;21152;-74
2023/02/10 11:28:27;;;;;;;;;;;;;;;30.86;6.48;96531.06;3523360;28;22707;-71
2023/02/10 11:31:16;;;;;;;;;;;;;;;31.12;5.68;96518.31;3575280;28;21042;-75
2023/02/10 11:33:41;;;;;;;;;;;;;;;30.57;6.34;96529.06;3612056;28;20019;-72
2023/02/10 11:36:08;;;;;;;;;;;;;;;31.16;6.08;96525.22;3608611;28;21957;-72
2023/02/10 11:38:33;;;;;;;;;;;;;;;30.71;6.13;96516.53;3789521;28;21837;-85
2023/02/10 11:41:04;;;;;;;;;;;;;;;30.43;5.88;96519.66;5028103;28;19921;-84
2023/02/10 11:43:35;;;;;;;;;;;;;;;30.20;6.15;96518.34;5034363;28;19912;-82
2023/02/10 11:46:02;;;;;;;;;;;;;;;30.02;6.28;96512.03;5046457;28;19967;-82
2023/02/10 11:48:28;;;;;;;;;;;;;;;29.93;6.28;96520.13;5040272;28;19912;-80
2023/02/10 11:51:00;;;;;;;;;;;;;;;30.10;6.27;96509.38;5026380;28;20339;-79
2023/02/10 11:53:27;;;;;;;;;;;;;;;29.84;6.47;96515.56;5029335;28;19913;-84
2023/02/10 11:55:55;;;;;;;;;;;;;;;30.40;6.43;96517.91;5040085;28;20007;-85
2023/02/10 12:01:20;;;;;;;;;;;;;;;31.17;6.08;96508.97;5027318;28;19947;-82
2023/02/10 12:03:46;;;;;;;;;;;;;;;31.52;5.86;96501.50;5009303;28;20323;-78
2023/02/10 12:06:25;;;;;;;;;;;;;;;31.25;5.91;96494.94;5035384;28;20004;-79
2023/02/10 12:08:59;;;;;;;;;;;;;;;28.86;6.85;96497.38;5037133;28;19932;-78
2023/02/10 12:11:29;;;;;;;;;;;;;;;27.87;7.31;96486.56;5034658;28;19913;-78
2023/02/10 12:14:01;;;;;;;;;;;;;;;27.93;7.52;96476.03;5034540;28;19913;-78
2023/02/10 12:16:40;;;;;;;;;;;;;;;26.61;8.19;96471.22;5037592;28;19956;-79
2023/02/10 12:19:13;;;;;;;;;;;;;;;24.96;8.91;96469.75;5032507;28;19913;-80
2023/02/10 12:21:58;;;;;;;;;;;;;;;23.39;10.07;96467.59;5057061;28;19974;-79
2023/02/10 12:24:24;;;;;;;;;;;;;;;21.12;11.48;96450.63;5026702;28;19924;-83
2023/02/10 12:26:50;;;;;;;;;;;;;;;19.43;12.74;96463.78;5047907;28;19913;-79
2023/02/10 12:29:30;;;;;;;;;;;;;;;18.20;13.72;96454.00;5067867;28;19916;-80
2023/02/10 12:31:58;;;;;;;;;;;;;;;16.99;14.88;96458.66;5058565;28;19921;-79
2023/02/10 12:34:35;;;;;;;;;;;;;;;15.86;15.95;96446.69;5039459;28;20468;-80